Time;durP1;ratioP1;P1;durP2;ratioP2;P2;SDS_P1;SDS_P2;PMS_P1;PMS_P2;Temp;Humidity;BMP_temperature;BMP_pressure;BME280_temperature;BME280_humidity;BME280_pressure;Samples;Min_cycle;Max_cycle;Signal;HPM_P1;HPM_P2
2023/07/09 00:00:50;;;;;;;6.85;1.65;;;;;;;17.60;56.51;100759.34;5012763;28;20403;-45
2023/07/09 00:03:19;;;;;;;6.13;1.60;;;;;;;17.55;56.71;100766.09;5008383;28;20041;-44
2023/07/09 00:05:48;;;;;;;8.18;1.70;;;;;;;17.56;56.72;100769.72;5011788;28;20551;-47
2023/07/09 00:08:28;;;;;;;5.90;2.08;;;;;;;17.56;57.00;100776.13;5013056;28;20042;-45
2023/07/09 00:10:56;;;;;;;8.82;2.00;;;;;;;17.56;57.05;100775.31;5013888;28;20045;-45
2023/07/09 00:13:25;;;;;;;8.35;2.53;;;;;;;17.53;57.20;100774.09;5012351;28;20129;-44
2023/07/09 00:15:55;;;;;;;7.43;2.08;;;;;;;17.47;57.37;100781.22;4995628;28;20046;-44
2023/07/09 00:18:21;;;;;;;12.48;1.95;;;;;;;17.44;57.22;100789.63;5012564;28;20042;-45
2023/07/09 00:20:48;;;;;;;10.30;2.38;;;;;;;17.42;57.24;100784.41;5012630;28;20050;-45
2023/07/09 00:23:16;;;;;;;6.03;1.55;;;;;;;17.43;57.15;100774.81;4999784;28;20503;-45
2023/07/09 00:25:44;;;;;;;6.53;1.83;;;;;;;17.43;57.25;100774.81;5011783;28;20104;-45
2023/07/09 00:28:17;;;;;;;12.13;1.63;;;;;;;17.41;57.43;100782.81;5003582;28;20132;-45
2023/07/09 00:30:45;;;;;;;8.73;2.25;;;;;;;17.36;58.00;100788.78;5012347;28;20057;-44
2023/07/09 00:33:14;;;;;;;7.50;1.48;;;;;;;17.37;58.24;100786.75;5012473;28;20502;-45
2023/07/09 00:35:43;;;;;;;8.68;1.63;;;;;;;17.34;58.49;100779.94;4993827;28;20060;-46
2023/07/09 00:38:22;;;;;;;7.13;1.50;;;;;;;17.33;58.74;100775.56;5012477;28;20053;-44
2023/07/09 00:41:04;;;;;;;3.60;1.20;;;;;;;17.30;59.14;100767.94;5012541;28;20046;-44
2023/07/09 00:43:37;;;;;;;7.00;1.10;;;;;;;17.29;59.50;100779.53;5012663;28;20460;-45
2023/07/09 00:46:30;;;;;;;6.18;1.58;;;;;;;17.27;59.72;100781.91;5016224;28;20100;-47
2023/07/09 00:49:05;;;;;;;9.23;1.67;;;;;;;17.22;60.21;100780.28;4987102;28;20054;-44
2023/07/09 00:51:41;;;;;;;8.95;1.48;;;;;;;17.21;60.39;100780.69;5012598;28;20049;-45
2023/07/09 00:54:31;;;;;;;10.90;1.58;;;;;;;17.19;60.68;100783.84;5012297;28;20046;-45
2023/07/09 00:57:00;;;;;;;3.90;1.52;;;;;;;17.18;60.66;100782.25;5010911;28;20030;-44
2023/07/09 00:59:31;;;;;;;6.00;2.20;;;;;;;17.18;61.01;100778.66;5008794;28;20555;-44
2023/07/09 01:02:00;;;;;;;5.72;1.42;;;;;;;17.15;61.20;100774.66;5009466;28;20515;-46
2023/07/09 01:04:28;;;;;;;11.93;1.80;;;;;;;17.14;61.52;100773.03;5011556;28;20057;-45
2023/07/09 01:06:56;;;;;;;7.72;2.45;;;;;;;17.14;61.77;100769.41;5010823;28;20095;-45
2023/07/09 01:09:24;;;;;;;5.55;1.77;;;;;;;17.12;61.75;100778.22;5012060;28;20049;-45
2023/07/09 01:11:56;;;;;;;7.85;2.38;;;;;;;17.09;61.91;100775.38;5011734;28;20045;-46
2023/07/09 01:14:25;;;;;;;10.18;1.90;;;;;;;17.09;61.82;100775.38;5011276;28;20064;-45
2023/07/09 01:17:05;;;;;;;5.82;1.80;;;;;;;17.02;61.71;100767.75;5006546;28;20069;-45
2023/07/09 01:19:42;;;;;;;5.60;1.40;;;;;;;16.99;61.59;100774.13;5011310;28;20141;-45
2023/07/09 01:22:17;;;;;;;8.57;1.90;;;;;;;16.95;61.52;100773.28;5011461;28;20038;-44
2023/07/09 01:24:55;;;;;;;2.65;1.33;;;;;;;16.93;61.51;100767.28;5011261;28;20056;-48
2023/07/09 01:27:28;;;;;;;5.00;1.70;;;;;;;16.93;61.22;100772.88;5011713;28;20133;-44
2023/07/09 01:29:56;;;;;;;5.65;1.50;;;;;;;16.89;61.09;100777.66;5011610;28;20050;-45
2023/07/09 01:32:24;;;;;;;7.50;1.48;;;;;;;16.83;60.87;100779.19;5011248;28;20129;-44
2023/07/09 01:34:56;;;;;;;4.85;1.58;;;;;;;16.78;60.76;100782.34;5010370;28;20054;-45
2023/07/09 01:37:25;;;;;;;10.45;2.30;;;;;;;16.75;60.78;100781.13;5007524;28;20046;-45
2023/07/09 01:39:53;;;;;;;8.23;1.55;;;;;;;16.68;60.89;100774.66;4993722;28;20373;-44
2023/07/09 01:42:22;;;;;;;6.38;1.40;;;;;;;16.63;61.13;100791.75;5011127;28;20044;-45
2023/07/09 01:44:51;;;;;;;7.35;2.60;;;;;;;16.54;61.11;100782.91;5018120;28;20064;-46
2023/07/09 01:47:18;;;;;;;9.20;1.60;;;;;;;16.53;61.22;100784.09;5013925;28;20038;-44
2023/07/09 01:49:48;;;;;;;7.93;1.80;;;;;;;16.50;61.22;100782.03;5011612;28;20050;-45
2023/07/09 01:52:16;;;;;;;7.45;2.28;;;;;;;16.47;61.24;100777.22;5010985;28;20392;-45
2023/07/09 01:54:46;;;;;;;10.82;1.90;;;;;;;16.42;61.53;100773.56;5010071;28;20038;-45
2023/07/09 01:57:24;;;;;;;10.02;3.10;;;;;;;16.31;61.82;100775.44;5010122;28;20053;-46
2023/07/09 01:59:54;;;;;;;5.65;1.45;;;;;;;16.27;62.09;100769.03;5004958;28;20077;-45
2023/07/09 02:02:22;;;;;;;6.40;1.98;;;;;;;16.24;62.32;100774.56;5015264;28;20112;-44
2023/07/09 02:04:51;;;;;;;6.63;1.88;;;;;;;16.23;62.50;100768.19;5014639;28;20061;-44
2023/07/09 02:07:20;;;;;;;9.02;1.95;;;;;;;16.21;62.60;100764.97;5015230;28;20058;-45
2023/07/09 02:09:48;;;;;;;6.50;2.20;;;;;;;16.20;63.06;100774.53;5014667;28;20100;-45
2023/07/09 02:12:16;;;;;;;10.73;2.85;;;;;;;16.15;63.41;100766.50;4996975;28;20519;-44
2023/07/09 02:14:44;;;;;;;11.73;2.85;;;;;;;16.12;63.63;100761.69;4990600;28;20053;-44
2023/07/09 02:17:14;;;;;;;13.27;2.38;;;;;;;16.10;63.92;100769.63;5015477;28;20037;-44
2023/07/09 02:19:41;;;;;;;6.50;2.15;;;;;;;16.05;64.26;100775.56;5028135;28;20046;-46
2023/07/09 02:22:08;;;;;;;9.55;2.35;;;;;;;16.01;64.69;100777.53;5015027;28;20062;-45
2023/07/09 02:24:35;;;;;;;11.15;2.55;;;;;;;16.01;65.11;100782.28;5014005;28;20120;-45
2023/07/09 02:27:05;;;;;;;14.20;4.10;;;;;;;16.01;65.40;100771.13;5014740;28;20042;-47
2023/07/09 02:29:33;;;;;;;13.48;2.20;;;;;;;15.99;65.54;100774.28;5014847;28;20042;-47
2023/07/09 02:32:01;;;;;;;7.85;2.45;;;;;;;15.99;65.97;100768.69;5014750;28;20050;-45
2023/07/09 02:34:29;;;;;;;8.38;2.15;;;;;;;15.97;66.32;100776.66;5013733;28;20045;-46
2023/07/09 02:36:58;;;;;;;10.27;2.25;;;;;;;15.95;66.47;100778.22;5014693;28;20536;-44
2023/07/09 02:39:26;;;;;;;8.50;2.47;;;;;;;15.93;66.73;100778.63;5014418;28;20042;-46
2023/07/09 02:41:53;;;;;;;8.60;2.45;;;;;;;15.91;66.92;100772.63;5014718;28;20451;-46
2023/07/09 02:44:20;;;;;;;11.57;2.70;;;;;;;15.91;67.37;100771.81;5013778;28;20554;-44
2023/07/09 02:46:47;;;;;;;9.70;2.25;;;;;;;15.88;67.50;100778.97;5013310;28;20076;-45
2023/07/09 02:49:14;;;;;;;12.57;2.53;;;;;;;15.87;67.73;100766.16;5014292;28;20559;-45
2023/07/09 02:51:41;;;;;;;15.35;2.88;;;;;;;15.88;67.97;100762.22;5014305;28;20077;-49
2023/07/09 02:54:08;;;;;;;10.80;2.35;;;;;;;15.86;68.38;100770.13;5013502;28;20049;-45
2023/07/09 02:56:35;;;;;;;8.52;2.17;;;;;;;15.87;68.39;100771.75;5014263;28;20416;-45
2023/07/09 02:59:02;;;;;;;14.05;2.67;;;;;;;15.89;68.52;100768.56;5014153;28;20034;-45
2023/07/09 03:01:30;;;;;;;11.93;2.63;;;;;;;15.87;68.69;100766.16;5087443;23;20058;-45
2023/07/09 03:03:59;;;;;;;19.30;2.42;;;;;;;15.84;68.90;100762.16;4990557;28;20117;-46
2023/07/09 03:06:26;;;;;;;11.25;2.60;;;;;;;15.84;69.09;100762.16;4994500;28;20508;-45
2023/07/09 03:08:53;;;;;;;9.90;2.75;;;;;;;15.84;69.46;100764.13;4992133;28;20069;-45
2023/07/09 03:11:21;;;;;;;13.25;3.22;;;;;;;15.83;69.59;100765.34;4987850;28;20041;-45
2023/07/09 03:13:48;;;;;;;18.65;5.63;;;;;;;15.80;69.90;100764.13;4987541;28;20043;-44
2023/07/09 03:16:16;;;;;;;8.63;2.47;;;;;;;15.79;70.07;100758.88;4972665;28;20050;-47
2023/07/09 03:18:43;;;;;;;9.95;2.33;;;;;;;15.77;70.03;100755.69;4986216;28;20049;-44
2023/07/09 03:21:10;;;;;;;14.77;2.30;;;;;;;15.74;70.29;100756.44;4995111;28;20100;-45
2023/07/09 03:23:37;;;;;;;15.50;3.75;;;;;;;15.69;70.44;100754.78;4993404;28;20146;-44
2023/07/09 03:26:04;;;;;;;6.95;2.00;;;;;;;15.69;70.65;100748.41;4996708;28;20609;-44
2023/07/09 03:28:32;;;;;;;12.63;2.30;;;;;;;15.65;70.94;100750.31;4994225;28;20038;-46
2023/07/09 03:30:59;;;;;;;16.40;3.70;;;;;;;15.63;71.17;100747.94;4992860;28;20041;-44
2023/07/09 03:33:26;;;;;;;13.20;2.47;;;;;;;15.61;71.43;100746.69;4992813;28;20045;-47
2023/07/09 03:35:53;;;;;;;13.95;2.25;;;;;;;15.59;71.56;100746.28;4997648;28;20495;-47
2023/07/09 03:38:20;;;;;;;9.43;2.35;;;;;;;15.57;71.71;100751.41;5004807;28;20045;-45
2023/07/09 03:40:52;;;;;;;6.97;2.00;;;;;;;15.53;71.98;100747.78;5007566;28;20509;-45
2023/07/09 03:43:19;;;;;;;12.73;1.77;;;;;;;15.51;72.18;100741.78;5010421;28;20534;-45
2023/07/09 03:45:47;;;;;;;11.38;2.58;;;;;;;15.48;72.57;100750.91;5009640;28;20079;-45
2023/07/09 03:48:16;;;;;;;6.03;2.10;;;;;;;15.44;72.68;100747.22;5011431;28;20549;-45
2023/07/09 03:50:45;;;;;;;8.45;2.30;;;;;;;15.41;73.08;100748.00;5010898;28;20476;-45
2023/07/09 03:53:12;;;;;;;16.02;3.08;;;;;;;15.40;73.29;100751.97;5005401;28;20445;-45
2023/07/09 03:55:39;;;;;;;17.27;2.83;;;;;;;15.37;73.40;100741.56;4995523;28;20403;-46
2023/07/09 03:58:06;;;;;;;11.52;3.30;;;;;;;15.37;73.59;100747.94;5012350;28;20038;-44
2023/07/09 04:00:33;;;;;;;16.75;3.22;;;;;;;15.37;73.77;100741.56;5012861;28;20053;-45
2023/07/09 04:03:01;;;;;;;6.03;2.38;;;;;;;15.39;73.91;100739.19;5011461;28;20515;-44
2023/07/09 04:05:28;;;;;;;7.97;2.95;;;;;;;15.41;74.20;100745.22;5000200;28;20077;-45
2023/07/09 04:07:54;;;;;;;15.23;3.20;;;;;;;15.37;74.09;100741.56;5012010;28;20057;-44
2023/07/09 04:10:22;;;;;;;15.00;5.00;;;;;;;15.36;74.41;100745.50;5013060;28;20179;-45
2023/07/09 04:12:49;;;;;;;12.70;3.58;;;;;;;15.35;74.55;100741.13;4975813;28;20046;-44
2023/07/09 04:15:15;;;;;;;16.95;4.22;;;;;;;15.33;74.86;100747.06;5012920;28;20057;-45
2023/07/09 04:17:42;;;;;;;11.52;3.55;;;;;;;15.33;74.76;100746.28;5012794;28;20085;-44
2023/07/09 04:20:10;;;;;;;14.18;3.58;;;;;;;15.31;75.06;100743.06;5012803;28;20582;-44
2023/07/09 04:22:37;;;;;;;11.85;3.67;;;;;;;15.30;75.24;100747.03;5011254;28;20042;-44
2023/07/09 04:25:06;;;;;;;14.27;2.97;;;;;;;15.29;75.41;100746.25;5006109;28;20423;-46
2023/07/09 04:27:33;;;;;;;11.45;3.90;;;;;;;15.33;75.48;100751.88;5004949;28;20054;-44
2023/07/09 04:30:00;;;;;;;11.73;3.17;;;;;;;15.33;75.46;100744.28;5011266;28;20045;-45
2023/07/09 04:32:27;;;;;;;11.50;3.05;;;;;;;15.33;75.80;100751.88;5007149;28;20423;-44
2023/07/09 04:34:54;;;;;;;10.02;2.63;;;;;;;15.32;75.83;100750.25;5006915;28;20046;-44
2023/07/09 04:37:21;;;;;;;12.60;3.08;;;;;;;15.33;76.12;100746.28;5009586;28;20443;-44
2023/07/09 04:39:49;;;;;;;13.70;5.00;;;;;;;15.33;76.12;100751.88;4990244;28;20058;-44
2023/07/09 04:42:17;;;;;;;9.05;3.05;;;;;;;15.30;76.36;100747.84;5005332;28;20779;-45
2023/07/09 04:44:45;;;;;;;13.00;2.92;;;;;;;15.30;76.60;100744.25;5004111;28;20070;-50
2023/07/09 04:47:12;;;;;;;15.07;3.45;;;;;;;15.32;76.57;100750.25;5010990;28;20782;-44
2023/07/09 04:49:39;;;;;;;11.38;3.38;;;;;;;15.34;76.84;100739.50;5008799;28;20108;-46
2023/07/09 04:52:06;;;;;;;11.73;3.05;;;;;;;15.37;77.07;100744.34;5008320;28;20061;-45
2023/07/09 04:54:33;;;;;;;12.15;3.35;;;;;;;15.41;77.24;100742.44;5009792;28;20095;-44
2023/07/09 04:57:01;;;;;;;11.70;3.67;;;;;;;15.44;77.42;100741.66;5001891;28;20057;-44
2023/07/09 04:59:28;;;;;;;26.08;4.95;;;;;;;15.45;77.58;100743.25;4999909;28;20559;-47
2023/07/09 05:01:55;;;;;;;16.48;4.80;;;;;;;15.51;77.82;100737.03;5018011;28;20049;-45
2023/07/09 05:04:22;;;;;;;17.20;3.70;;;;;;;15.57;77.88;100740.25;5030812;28;20045;-44
2023/07/09 05:06:49;;;;;;;12.50;3.70;;;;;;;15.60;77.94;100745.09;5028715;28;20434;-45
2023/07/09 05:09:15;;;;;;;14.43;3.67;;;;;;;15.64;78.24;100748.75;5029128;28;20045;-45
2023/07/09 05:11:42;;;;;;;16.10;3.20;;;;;;;15.68;78.25;100739.22;5011540;28;20509;-47
2023/07/09 05:14:09;;;;;;;16.08;3.78;;;;;;;15.73;78.68;100738.06;5021476;28;20046;-44
2023/07/09 05:16:36;;;;;;;18.20;3.80;;;;;;;15.76;78.67;100738.13;5027822;28;20041;-44
2023/07/09 05:19:04;;;;;;;13.25;3.65;;;;;;;15.79;79.00;100748.53;5031633;28;20085;-44
2023/07/09 05:21:30;;;;;;;14.25;3.70;;;;;;;15.87;78.88;100738.25;5027152;28;20095;-47
2023/07/09 05:23:57;;;;;;;13.00;3.30;;;;;;;15.91;78.95;100739.13;5026886;28;20495;-45
2023/07/09 05:26:24;;;;;;;14.60;3.63;;;;;;;15.97;79.05;100739.56;5029179;28;20045;-45
2023/07/09 05:28:51;;;;;;;12.90;3.65;;;;;;;16.01;79.06;100732.84;5027268;28;20045;-44
2023/07/09 05:31:18;;;;;;;17.80;3.00;;;;;;;16.07;79.12;100736.88;5025936;28;20050;-45
2023/07/09 05:33:46;;;;;;;11.80;3.15;;;;;;;16.10;79.11;100727.72;5029527;28;20045;-44
2023/07/09 05:36:15;;;;;;;17.30;2.78;;;;;;;16.18;79.25;100726.63;5009570;28;20491;-44
2023/07/09 05:38:43;;;;;;;13.25;3.63;;;;;;;16.23;79.08;100720.69;5026962;28;20041;-46
2023/07/09 05:41:11;;;;;;;11.27;3.17;;;;;;;16.26;79.05;100722.72;5019182;28;20080;-46
2023/07/09 05:43:38;;;;;;;8.70;2.55;;;;;;;16.29;78.92;100719.16;5026766;28;20083;-45
2023/07/09 05:46:05;;;;;;;14.13;3.13;;;;;;;16.32;79.10;100712.81;5010749;28;20041;-45
2023/07/09 05:48:33;;;;;;;12.75;2.72;;;;;;;16.40;79.02;100722.88;5027177;28;20049;-50
2023/07/09 05:51:00;;;;;;;22.92;2.83;;;;;;;16.50;78.91;100720.53;5020382;28;20533;-45
2023/07/09 05:53:26;;;;;;;6.65;2.05;;;;;;;16.56;78.73;100719.03;5029293;28;20049;-44
2023/07/09 05:55:55;;;;;;;12.63;3.10;;;;;;;16.62;78.59;100717.50;5031069;28;20037;-45
2023/07/09 05:58:22;;;;;;;9.05;2.05;;;;;;;16.69;78.61;100714.75;5030945;28;20049;-44
2023/07/09 06:00:53;;;;;;;14.60;3.35;;;;;;;16.72;78.35;100712.00;5035326;28;20046;-44
2023/07/09 06:03:22;;;;;;;9.37;2.70;;;;;;;16.75;78.03;100710.41;5030373;28;20046;-46
2023/07/09 06:05:50;;;;;;;10.73;2.50;;;;;;;16.79;77.84;100720.41;5040935;28;20041;-44
2023/07/09 06:08:17;;;;;;;10.95;2.97;;;;;;;16.84;77.82;100725.66;5033325;28;20124;-46
2023/07/09 06:10:55;;;;;;;13.48;2.72;;;;;;;16.91;77.68;100720.13;5030695;28;20065;-45
2023/07/09 06:13:23;;;;;;;13.85;2.15;;;;;;;17.00;77.58;100722.56;5029998;28;20483;-46
2023/07/09 06:15:52;;;;;;;16.08;3.72;;;;;;;17.07;77.63;100719.84;5030914;28;20047;-45
2023/07/09 06:18:20;;;;;;;14.38;4.15;;;;;;;17.17;77.38;100709.91;5030951;28;20081;-45
2023/07/09 06:20:51;;;;;;;11.93;2.50;;;;;;;17.27;77.29;100709.97;5028493;28;20499;-47
2023/07/09 06:23:19;;;;;;;12.02;4.00;;;;;;;17.42;77.17;100719.25;5024837;28;20043;-45
2023/07/09 06:25:47;;;;;;;11.00;3.15;;;;;;;17.57;76.98;100718.13;5019412;28;20403;-44
2023/07/09 06:28:19;;;;;;;13.93;3.05;;;;;;;17.68;76.82;100712.59;5025294;28;20553;-47
2023/07/09 06:30:47;;;;;;;;;;;;;;;17.80;76.56;100715.03;5026799;28;20519;-45
2023/07/09 06:33:15;;;;;;;18.02;2.55;;;;;;;17.95;76.35;100719.50;5023315;28;20027;-44
2023/07/09 06:35:50;;;;;;;11.48;3.13;;;;;;;18.11;75.70;100714.31;5027852;28;20407;-45
2023/07/09 06:38:17;;;;;;;10.02;2.47;;;;;;;18.22;75.31;100717.94;5029959;28;20049;-46
2023/07/09 06:40:45;;;;;;;14.13;2.33;;;;;;;18.33;74.86;100721.56;5010433;28;20041;-44
2023/07/09 06:43:12;;;;;;;19.48;3.25;;;;;;;18.37;74.46;100719.59;5027744;28;20045;-46
2023/07/09 06:45:48;;;;;;;17.85;3.22;;;;;;;18.38;74.10;100725.97;5026495;28;20742;-44
2023/07/09 06:48:15;;;;;;;18.13;3.65;;;;;;;18.35;73.79;100718.38;5013766;28;20042;-44
2023/07/09 06:50:42;;;;;;;12.93;2.72;;;;;;;18.30;73.73;100724.34;5030916;28;20394;-45
2023/07/09 06:53:10;;;;;;;14.60;2.20;;;;;;;18.27;73.62;100716.75;5033474;28;20582;-45
2023/07/09 06:55:36;;;;;;;16.38;2.88;;;;;;;18.24;73.47;100719.13;5032084;28;20387;-45
2023/07/09 06:58:04;;;;;;;13.68;3.63;;;;;;;18.24;73.78;100718.38;5011218;28;20833;-46
2023/07/09 07:00:31;;;;;;;10.50;2.17;;;;;;;18.24;73.73;100724.75;5024974;28;20056;-47
2023/07/09 07:02:58;;;;;;;8.38;2.28;;;;;;;18.17;73.44;100716.34;5026824;28;20053;-46
2023/07/09 07:05:26;;;;;;;15.32;2.90;;;;;;;18.06;73.36;100718.31;5031307;28;20053;-46
2023/07/09 07:07:53;;;;;;;15.70;3.47;;;;;;;17.99;73.47;100709.91;5030264;28;20041;-44
2023/07/09 07:10:20;;;;;;;10.60;2.92;;;;;;;18.00;73.79;100713.50;5018729;28;20411;-45
2023/07/09 07:12:48;;;;;;;9.13;2.40;;;;;;;18.10;73.87;100710.72;5029281;28;20045;-47
2023/07/09 07:15:17;;;;;;;13.30;3.15;;;;;;;18.31;73.63;100717.56;5025134;28;20120;-44
2023/07/09 07:17:45;;;;;;;25.00;2.85;;;;;;;18.47;73.61;100717.97;5029479;28;20111;-44
2023/07/09 07:20:17;;;;;;;17.17;3.85;;;;;;;18.55;73.86;100714.81;5028655;28;20057;-44
2023/07/09 07:22:44;;;;;;;21.55;3.28;;;;;;;18.65;74.35;100710.41;5031131;28;20038;-46
2023/07/09 07:25:12;;;;;;;12.20;3.05;;;;;;;18.72;74.69;100705.59;5024538;28;20044;-45
2023/07/09 07:27:39;;;;;;;15.07;3.13;;;;;;;18.79;75.25;100705.59;5024284;28;20072;-45
2023/07/09 07:30:10;;;;;;;15.68;3.17;;;;;;;18.94;75.69;100697.16;5030562;28;20483;-45
2023/07/09 07:32:48;;;;;;;17.30;3.20;;;;;;;19.17;75.91;100703.13;5031265;28;20081;-46
2023/07/09 07:35:17;;;;;;;16.83;4.53;;;;;;;19.44;76.70;100701.47;5039442;28;20048;-44
2023/07/09 07:37:43;;;;;;;16.40;3.00;;;;;;;19.56;76.23;100701.06;5033328;28;20376;-45
2023/07/09 07:40:11;;;;;;;15.23;2.80;;;;;;;19.62;76.04;100713.44;5033708;28;20851;-45
2023/07/09 07:42:38;;;;;;;17.05;5.63;;;;;;;19.72;76.24;100723.84;5032337;28;20080;-45
2023/07/09 07:45:07;;;;;;;23.40;4.45;;;;;;;19.76;75.79;100724.63;5022215;28;20053;-47
2023/07/09 07:47:34;;;;;;;25.88;4.35;;;;;;;19.82;75.16;100723.00;5033146;28;20049;-44
2023/07/09 07:50:04;;;;;;;22.20;3.75;;;;;;;19.69;74.27;100727.47;5032400;28;20045;-45
2023/07/09 07:52:32;;;;;;;19.05;4.45;;;;;;;19.57;74.03;100727.91;5031382;28;20052;-45
2023/07/09 07:54:58;;;;;;;18.40;2.92;;;;;;;19.47;74.32;100714.72;5032439;28;20116;-50
2023/07/09 07:57:26;;;;;;;17.08;5.25;;;;;;;19.88;74.52;100707.31;5029793;28;20049;-49
2023/07/09 07:59:53;;;;;;;17.25;4.20;;;;;;;20.12;73.86;100713.22;5027013;28;20115;-45
2023/07/09 08:02:20;;;;;;;18.73;4.20;;;;;;;20.47;73.77;100707.38;5020143;28;20065;-44
2023/07/09 08:04:47;;;;;;;24.20;4.75;;;;;;;20.82;72.88;100718.34;5026034;28;20057;-46
2023/07/09 08:07:14;;;;;;;20.30;4.63;;;;;;;21.10;72.08;100717.31;5013788;28;20066;-45
2023/07/09 08:09:41;;;;;;;19.25;4.47;;;;;;;21.25;71.54;100718.75;5017266;28;20081;-46
2023/07/09 08:12:11;;;;;;;20.05;4.18;;;;;;;21.16;70.61;100726.88;5029752;28;20546;-46
2023/07/09 08:14:45;;;;;;;25.00;4.30;;;;;;;20.90;70.52;100725.50;5029823;28;20045;-44
2023/07/09 08:17:12;;;;;;;23.55;4.68;;;;;;;20.68;70.39;100712.03;5030376;28;20037;-45
2023/07/09 08:19:46;;;;;;;48.67;11.18;;;;;;;20.50;70.75;100712.16;5028120;28;20069;-46
2023/07/09 08:22:15;;;;;;;25.27;4.38;;;;;;;20.65;70.85;100708.06;5032511;28;20049;-45
2023/07/09 08:24:42;;;;;;;18.45;3.35;;;;;;;20.99;69.97;100717.38;5023067;28;20053;-46
2023/07/09 08:27:10;;;;;;;21.00;4.70;;;;;;;21.08;68.78;100714.09;5025203;28;20038;-47
2023/07/09 08:29:37;;;;;;;18.80;3.78;;;;;;;20.88;69.04;100727.13;5024288;28;20046;-47
2023/07/09 08:32:04;;;;;;;35.45;5.82;;;;;;;20.46;69.02;100725.47;4992929;28;20046;-47
2023/07/09 08:34:31;;;;;;;17.48;3.53;;;;;;;20.12;69.49;100730.09;5028668;28;20111;-46
2023/07/09 08:36:58;;;;;;;20.63;3.55;;;;;;;19.78;69.92;100724.22;5030956;28;20062;-45
2023/07/09 08:39:25;;;;;;;22.92;3.60;;;;;;;19.67;70.11;100729.88;5031192;28;20080;-45
2023/07/09 08:41:59;;;;;;;14.18;3.05;;;;;;;20.05;69.82;100725.28;5022670;28;20045;-45
2023/07/09 08:44:53;;;;;;;13.30;3.38;;;;;;;20.07;68.87;100713.66;5020869;28;20061;-46
2023/07/09 08:47:26;;;;;;;14.80;3.30;;;;;;;19.87;68.85;100708.53;5023714;28;20042;-47
2023/07/09 08:50:10;;;;;;;18.92;3.95;;;;;;;19.57;68.74;100722.28;5025991;28;20076;-51
2023/07/09 08:52:41;;;;;;;10.88;2.40;;;;;;;19.17;68.79;100723.56;5020984;28;20103;-48
2023/07/09 08:55:20;;;;;;;13.27;2.83;;;;;;;18.91;69.32;100718.41;5026724;28;20423;-46
2023/07/09 08:57:53;;;;;;;12.07;2.55;;;;;;;18.72;69.53;100716.00;5013762;28;20076;-46
2023/07/09 09:00:37;;;;;;;10.68;1.98;;;;;;;18.49;69.86;100730.44;5013596;28;20108;-47
2023/07/09 09:03:14;;;;;;;;;;;;;;;18.27;70.71;100720.34;5006979;28;20049;-45
2023/07/09 09:05:44;;;;;;;10.20;3.55;;;;;;;18.13;70.58;100711.94;5028420;28;19925;-47
2023/07/09 09:08:45;;;;;;;10.63;2.50;;;;;;;18.05;71.55;100711.13;5026865;28;20041;-45
2023/07/09 09:11:34;;;;;;;10.73;2.13;;;;;;;18.02;71.76;100708.31;5011553;28;20050;-44
2023/07/09 09:14:07;;;;;;;3.28;1.13;;;;;;;17.99;71.47;100711.88;5016323;28;20033;-45
2023/07/09 09:16:39;;;;;;;8.85;1.50;;;;;;;17.99;71.73;100717.50;4999373;28;20058;-49
2023/07/09 09:19:29;;;;;;;6.28;1.38;;;;;;;18.06;71.87;100717.50;5007898;28;20135;-45
2023/07/09 09:22:08;;;;;;;4.00;0.75;;;;;;;18.43;71.64;100717.16;5021007;28;20060;-45
2023/07/09 09:24:36;;;;;;;3.95;1.35;;;;;;;18.62;71.01;100722.41;5025408;28;20407;-45
2023/07/09 09:27:03;;;;;;;5.80;0.95;;;;;;;18.99;70.59;100722.00;5020287;28;20054;-48
2023/07/09 09:29:31;;;;;;;5.82;0.90;;;;;;;19.37;70.33;100719.16;5027999;28;20049;-45
2023/07/09 09:32:03;;;;;;;7.93;3.15;;;;;;;20.43;69.36;100712.22;5026461;28;20041;-45
2023/07/09 09:34:29;;;;;;;4.53;1.40;;;;;;;21.78;67.02;100726.59;5021634;28;20086;-45
2023/07/09 09:36:58;;;;;;;3.67;0.80;;;;;;;22.16;65.20;100725.28;5014469;28;20085;-45
2023/07/09 09:39:26;;;;;;;7.68;1.33;;;;;;;22.30;64.16;100736.38;5021475;28;20045;-45
2023/07/09 09:41:58;;;;;;;5.78;1.30;;;;;;;21.91;64.95;100722.03;4993647;28;20050;-45
2023/07/09 09:44:27;;;;;;;7.28;1.20;;;;;;;21.47;65.35;100730.59;4989173;28;20668;-47
2023/07/09 09:46:57;;;;;;;7.35;1.65;;;;;;;21.00;65.85;100730.22;4999444;28;20068;-47
2023/07/09 09:49:27;;;;;;;9.18;2.88;;;;;;;20.50;66.75;100729.03;5000877;28;20053;-46
2023/07/09 09:51:57;;;;;;;9.52;1.95;;;;;;;19.93;68.01;100737.81;4994366;28;20049;-46
2023/07/09 09:54:30;;;;;;;7.60;1.63;;;;;;;19.41;68.86;100736.78;4995534;28;20126;-48
2023/07/09 09:56:57;;;;;;;8.95;1.83;;;;;;;18.99;69.98;100728.41;4977063;28;20046;-46
2023/07/09 09:59:30;;;;;;;9.60;2.92;;;;;;;18.78;70.72;100723.63;4991416;28;20050;-45
2023/07/09 10:02:02;;;;;;;8.65;1.90;;;;;;;18.64;71.22;100728.41;4994420;28;20065;-48
2023/07/09 10:04:30;;;;;;;13.30;3.10;;;;;;;18.52;71.84;100718.41;5018959;28;20041;-44
2023/07/09 10:07:06;;;;;;;8.50;2.17;;;;;;;18.51;72.09;100728.03;5027967;28;20518;-45
2023/07/09 10:09:43;;;;;;;12.98;2.65;;;;;;;18.61;72.77;100724.41;5027355;28;20053;-44
2023/07/09 10:12:22;;;;;;;11.82;2.70;;;;;;;19.03;72.33;100725.63;5021844;28;20038;-45
2023/07/09 10:15:07;;;;;;;10.20;2.13;;;;;;;19.83;71.55;100712.56;4996651;28;20606;-46
2023/07/09 10:18:00;;;;;;;9.68;2.30;;;;;;;21.27;68.46;100707.06;5019479;28;20069;-44
2023/07/09 10:20:40;;;;;;;8.02;2.13;;;;;;;22.44;67.15;100721.25;5015382;28;20060;-45
2023/07/09 10:23:13;;;;;;;7.15;1.83;;;;;;;23.48;65.60;100710.59;5028666;28;20088;-45
2023/07/09 10:25:51;;;;;;;9.13;1.40;;;;;;;23.46;65.30;100719.50;5030084;28;20487;-44
2023/07/09 10:28:55;;;;;;;7.10;2.17;;;;;;;23.60;64.57;100715.59;5019884;28;20049;-45
2023/07/09 10:31:44;;;;;;;5.57;2.50;;;;;;;23.09;64.38;100721.81;5012970;28;20049;-44
2023/07/09 10:34:11;;;;;;;5.55;1.20;;;;;;;22.61;64.94;100714.53;5030428;28;20040;-44
2023/07/09 10:37:14;;;;;;;19.98;2.40;;;;;;;22.45;64.98;100714.41;5034922;28;20045;-45
2023/07/09 10:39:48;;;;;;;6.45;2.08;;;;;;;22.71;63.91;100707.16;5030553;28;20049;-45
2023/07/09 10:42:38;;;;;;;9.38;2.25;;;;;;;22.48;64.17;100698.66;5028654;28;20509;-46
2023/07/09 10:45:17;;;;;;;7.07;1.33;;;;;;;22.06;64.14;100686.75;5031626;28;20457;-46
2023/07/09 10:47:54;;;;;;;6.10;1.50;;;;;;;21.75;64.58;100690.78;5028505;28;20519;-46
2023/07/09 10:50:34;;;;;;;4.07;1.38;;;;;;;21.92;64.82;100684.16;5026528;28;20053;-45
2023/07/09 10:53:11;;;;;;;5.10;1.10;;;;;;;22.28;63.81;100690.06;5022549;28;20530;-45
2023/07/09 10:55:49;;;;;;;3.50;1.20;;;;;;;22.38;63.63;100672.97;5009943;28;20052;-48
2023/07/09 10:58:27;;;;;;;4.55;1.25;;;;;;;22.32;63.48;100669.03;4997918;28;20052;-48
2023/07/09 11:00:55;;;;;;;6.43;1.55;;;;;;;22.45;63.25;100678.50;4978066;28;20057;-47
2023/07/09 11:03:43;;;;;;;7.47;1.58;;;;;;;22.64;62.88;100691.13;4998364;28;20421;-49
2023/07/09 11:06:18;;;;;;;15.73;4.72;;;;;;;22.66;62.66;100693.53;4997369;28;21302;-49
2023/07/09 11:08:48;;;;;;;7.97;1.67;;;;;;;22.72;62.68;100680.50;4995827;28;20514;-47
2023/07/09 11:11:25;;;;;;;16.90;4.68;;;;;;;22.72;62.68;100681.31;5021154;28;20049;-47
2023/07/09 11:14:03;;;;;;;19.27;3.53;;;;;;;22.44;62.95;100673.31;5023783;28;20033;-50
2023/07/09 11:16:35;;;;;;;14.85;3.38;;;;;;;21.97;63.45;100677.25;5033105;28;20037;-46
2023/07/09 11:19:06;;;;;;;19.65;3.65;;;;;;;21.63;64.08;100666.00;5011324;28;20055;-46
2023/07/09 11:21:33;;;;;;;14.30;3.00;;;;;;;21.41;64.60;100659.84;5026105;28;20369;-46
2023/07/09 11:24:03;;;;;;;16.75;4.22;;;;;;;21.22;65.21;100652.81;5028715;28;20141;-48
2023/07/09 11:26:33;;;;;;;22.85;3.58;;;;;;;21.01;65.55;100646.59;5032550;28;20053;-45
2023/07/09 11:29:06;;;;;;;14.93;3.53;;;;;;;20.88;66.17;100654.78;5029264;28;20050;-46
2023/07/09 11:31:44;;;;;;;12.43;3.63;;;;;;;20.94;66.40;100655.13;5024909;28;20045;-46
2023/07/09 11:34:13;;;;;;;13.00;2.28;;;;;;;21.29;66.35;100657.56;5031556;28;20056;-46
2023/07/09 11:36:57;;;;;;;9.50;2.58;;;;;;;21.58;65.07;100674.91;5029482;28;20033;-45